createdAt,value
2019-02-18T00:01:32.862Z,69.49
2019-02-18T00:04:03.113Z,69.35
2019-02-18T00:06:33.240Z,69.25
2019-02-18T00:09:04.940Z,69.17
2019-02-18T00:11:35.144Z,69.12
2019-02-18T00:14:05.373Z,69.11
2019-02-18T00:16:35.542Z,69.09
2019-02-18T00:19:06.941Z,69.08
2019-02-18T00:21:37.321Z,69.01
2019-02-18T00:24:07.527Z,69.00
2019-02-18T00:26:38.113Z,68.97
2019-02-18T00:29:08.572Z,68.90
2019-02-18T00:31:38.861Z,68.79
2019-02-18T00:34:09.434Z,68.79
2019-02-18T00:36:39.849Z,68.72
2019-02-18T00:39:10.364Z,68.66
2019-02-18T00:41:40.746Z,68.69
2019-02-18T00:44:11.290Z,68.65
2019-02-18T00:46:41.731Z,68.70
2019-02-18T00:49:12.422Z,68.73
2019-02-18T00:51:42.947Z,68.65
2019-02-18T00:54:13.271Z,68.55
2019-02-18T00:56:43.618Z,68.52
2019-02-18T00:59:13.883Z,68.53
2019-02-18T01:01:44.221Z,68.54
2019-02-18T01:04:14.515Z,68.55
2019-02-18T01:06:45.079Z,68.58
2019-02-18T01:09:15.392Z,68.66
2019-02-18T01:11:45.848Z,68.66
2019-02-18T01:14:16.273Z,68.71
2019-02-18T01:16:46.759Z,68.68
2019-02-18T01:19:17.031Z,68.65
2019-02-18T01:21:47.325Z,68.64
2019-02-18T01:24:17.895Z,68.63
2019-02-18T01:26:48.441Z,68.69
2019-02-18T01:29:18.673Z,68.69
2019-02-18T01:31:49.062Z,68.67
2019-02-18T01:34:19.312Z,68.69
2019-02-18T01:36:49.811Z,68.73
2019-02-18T01:39:20.270Z,68.75
2019-02-18T01:41:50.640Z,68.86
2019-02-18T01:44:20.809Z,68.91
2019-02-18T01:46:51.083Z,68.91
2019-02-18T01:49:21.449Z,68.94
2019-02-18T01:51:51.668Z,68.92
2019-02-18T01:54:22.272Z,68.96
2019-02-18T01:56:52.651Z,68.95
2019-02-18T01:59:23.186Z,68.96
2019-02-18T02:01:53.506Z,68.97
2019-02-18T02:04:23.722Z,68.98
2019-02-18T02:06:54.117Z,68.97
2019-02-18T02:09:24.559Z,68.96
2019-02-18T02:11:54.981Z,68.99
2019-02-18T02:14:25.184Z,68.99
2019-02-18T02:16:55.760Z,69.05
2019-02-18T02:19:26.060Z,69.06
2019-02-18T02:21:56.638Z,69.09
2019-02-18T02:24:26.857Z,69.11
2019-02-18T02:26:57.118Z,69.17
2019-02-18T02:29:27.439Z,69.20
2019-02-18T02:31:57.827Z,69.22
2019-02-18T02:34:28.106Z,69.25
2019-02-18T02:36:58.620Z,69.35
2019-02-18T02:39:29.142Z,69.40
2019-02-18T02:41:59.667Z,69.44
2019-02-18T02:44:30.103Z,69.50
2019-02-18T02:47:00.536Z,69.58
2019-02-18T02:49:30.896Z,69.69
2019-02-18T02:52:01.345Z,69.85
2019-02-18T02:54:31.702Z,69.95
2019-02-18T02:57:01.879Z,70.06
2019-02-18T02:59:32.467Z,70.19
2019-02-18T03:02:02.796Z,70.21
2019-02-18T03:04:32.939Z,70.28
2019-02-18T03:07:03.084Z,70.35
2019-02-18T03:09:33.201Z,70.36
2019-02-18T03:12:03.412Z,70.40
2019-02-18T03:14:33.773Z,70.45
2019-02-18T03:17:03.977Z,70.54
2019-02-18T03:19:34.250Z,70.58
2019-02-18T03:22:04.424Z,70.56
2019-02-18T03:24:34.593Z,70.58
2019-02-18T03:27:04.794Z,70.66
2019-02-18T03:30:40.376Z,70.75
2019-02-18T03:33:11.352Z,70.79
2019-02-18T03:35:48.880Z,70.87
2019-02-18T03:38:19.123Z,70.94
2019-02-18T03:40:49.280Z,70.96
2019-02-18T03:43:19.492Z,71.03
2019-02-18T03:45:49.699Z,71.10
2019-02-18T03:48:19.917Z,71.10
2019-02-18T03:50:50.177Z,71.15
2019-02-18T03:53:20.312Z,71.15
2019-02-18T03:55:50.561Z,71.14
2019-02-18T03:58:20.890Z,71.19
2019-02-18T04:00:51.154Z,71.24
2019-02-18T04:03:21.324Z,71.26
2019-02-18T04:05:51.463Z,71.23
2019-02-18T04:08:21.550Z,71.19
2019-02-18T04:10:51.731Z,71.21
2019-02-18T04:13:21.982Z,71.23
2019-02-18T04:15:52.309Z,71.25
2019-02-18T04:18:22.502Z,71.22
2019-02-18T04:20:52.748Z,71.18
2019-02-18T04:23:22.905Z,71.25
2019-02-18T04:25:53.023Z,71.22
2019-02-18T04:28:23.171Z,71.17
2019-02-18T04:30:53.386Z,71.25
2019-02-18T04:33:23.550Z,71.27
2019-02-18T04:35:53.776Z,71.23
2019-02-18T04:38:23.848Z,71.20
2019-02-18T04:40:54.013Z,71.22
2019-02-18T04:43:24.123Z,71.20
2019-02-18T04:45:54.190Z,71.18
2019-02-18T04:48:24.422Z,71.24
2019-02-18T04:50:54.737Z,71.25
2019-02-18T04:53:24.877Z,71.26
2019-02-18T04:55:54.975Z,71.25
2019-02-18T04:58:25.095Z,71.28
2019-02-18T05:00:55.740Z,71.29
2019-02-18T05:03:25.790Z,71.36
2019-02-18T05:05:57.852Z,71.38
2019-02-18T05:08:28.377Z,71.39
2019-02-18T05:10:58.894Z,71.48
2019-02-18T05:13:29.549Z,71.40
2019-02-18T05:18:29.327Z,71.31
2019-02-18T05:20:59.765Z,71.36
2019-02-18T05:23:30.678Z,71.31
2019-02-18T05:26:01.321Z,71.33
2019-02-18T05:28:32.100Z,71.31
2019-02-18T05:31:02.681Z,71.37
2019-02-18T05:33:33.231Z,71.44
2019-02-18T05:36:03.743Z,71.50
2019-02-18T05:38:34.381Z,71.56
2019-02-18T05:41:04.885Z,71.56
2019-02-18T05:43:35.255Z,71.57
2019-02-18T05:46:08.559Z,71.59
2019-02-18T05:48:38.411Z,71.60
2019-02-18T05:51:08.974Z,71.64
2019-02-18T05:53:39.692Z,71.69
2019-02-18T05:56:10.357Z,71.77
2019-02-18T05:58:41.835Z,71.77
2019-02-18T06:01:12.331Z,71.81
2019-02-18T06:03:42.714Z,71.88
2019-02-18T06:06:13.194Z,71.96
2019-02-18T06:08:43.700Z,72.04
2019-02-18T06:11:14.216Z,72.13
2019-02-18T06:13:44.586Z,72.23
2019-02-18T06:16:15.926Z,72.29
2019-02-18T06:18:46.566Z,72.35
2019-02-18T06:21:19.032Z,72.37
2019-02-18T06:23:49.529Z,72.41
2019-02-18T06:26:19.849Z,72.51
2019-02-18T06:28:50.393Z,72.55
2019-02-18T06:31:20.943Z,72.59
2019-02-18T06:33:51.307Z,72.69
2019-02-18T06:36:23.956Z,72.77
2019-02-18T06:38:54.439Z,72.83
2019-02-18T06:41:24.946Z,72.88
2019-02-18T06:43:55.502Z,72.94
2019-02-18T06:46:31.869Z,72.97
2019-02-18T06:49:08.668Z,73.05
2019-02-18T06:51:39.150Z,73.10
2019-02-18T06:54:09.696Z,73.16
2019-02-18T06:57:04.389Z,73.19
2019-02-18T06:59:38.303Z,73.21
2019-02-18T07:02:30.581Z,73.22
2019-02-18T07:05:35.059Z,73.24
2019-02-18T07:10:59.203Z,73.25
2019-02-18T07:13:29.715Z,73.25
2019-02-18T07:16:00.330Z,73.14
2019-02-18T07:18:30.873Z,73.08
2019-02-18T07:21:01.404Z,73.04
2019-02-18T07:23:31.886Z,72.99
2019-02-18T07:26:02.564Z,72.95
2019-02-18T07:28:33.160Z,72.87
2019-02-18T07:31:03.490Z,72.80
2019-02-18T07:33:33.593Z,72.78
2019-02-18T07:36:03.891Z,72.78
2019-02-18T07:38:34.227Z,72.72
2019-02-18T07:41:04.443Z,72.67
2019-02-18T07:43:34.746Z,72.61
2019-02-18T07:46:05.078Z,72.57
2019-02-18T07:48:36.788Z,72.50
2019-02-18T07:51:07.195Z,72.46
2019-02-18T07:53:37.379Z,72.41
2019-02-18T07:56:07.792Z,72.33
2019-02-18T07:58:37.916Z,72.24
2019-02-18T08:01:08.336Z,72.17
2019-02-18T08:03:38.508Z,72.11
2019-02-18T08:06:08.769Z,72.04
2019-02-18T08:08:38.953Z,71.99
2019-02-18T08:11:12.260Z,71.92
2019-02-18T08:13:42.733Z,71.86
2019-02-18T08:16:12.999Z,71.77
2019-02-18T08:18:43.253Z,71.70
2019-02-18T08:21:13.510Z,71.63
2019-02-18T08:23:45.519Z,71.54
2019-02-18T08:26:15.821Z,71.47
2019-02-18T08:28:46.063Z,71.40
2019-02-18T08:31:55.848Z,71.30
2019-02-18T08:34:26.082Z,71.18
2019-02-18T08:36:56.355Z,71.12
2019-02-18T08:39:27.070Z,70.99
2019-02-18T08:41:58.042Z,70.89
2019-02-18T08:44:28.433Z,70.79
2019-02-18T08:46:58.621Z,70.69
2019-02-18T08:49:29.045Z,70.62
2019-02-18T08:51:59.272Z,70.58
2019-02-18T08:54:29.471Z,70.50
2019-02-18T08:57:02.241Z,70.39
2019-02-18T08:59:32.617Z,70.24
2019-02-18T09:02:03.096Z,70.03
2019-02-18T09:04:33.528Z,69.88
2019-02-18T09:07:03.950Z,69.77
2019-02-18T09:09:34.434Z,69.64
2019-02-18T09:12:04.780Z,69.50
2019-02-18T09:14:35.300Z,69.43
2019-02-18T09:17:06.866Z,69.27
2019-02-18T09:19:37.021Z,69.11
2019-02-18T09:22:25.806Z,69.05
2019-02-18T09:25:11.298Z,68.99
2019-02-18T09:27:41.692Z,68.92
2019-02-18T09:30:11.985Z,68.86
2019-02-18T09:32:43.716Z,68.74
2019-02-18T09:35:16.016Z,68.58
2019-02-18T09:37:46.214Z,68.49
2019-02-18T09:40:16.706Z,68.33
2019-02-18T09:42:46.930Z,68.20
2019-02-18T09:45:17.356Z,68.11
2019-02-18T09:47:47.619Z,67.97
2019-02-18T09:50:21.392Z,67.79
2019-02-18T09:52:51.677Z,67.61
2019-02-18T09:55:22.113Z,67.47
2019-02-18T09:57:52.431Z,67.27
2019-02-18T10:00:22.705Z,67.10
2019-02-18T10:02:53.040Z,67.00
2019-02-18T10:05:23.386Z,66.83
2019-02-18T10:07:54.829Z,66.71
2019-02-18T10:10:25.475Z,66.58
2019-02-18T10:12:59.741Z,66.46
2019-02-18T10:15:30.260Z,66.33
2019-02-18T10:18:00.678Z,66.13
2019-02-18T10:20:31.057Z,65.94
2019-02-18T10:23:21.718Z,65.74
2019-02-18T10:25:58.859Z,65.68
2019-02-18T10:28:29.532Z,65.52
2019-02-18T10:31:02.551Z,65.27
2019-02-18T10:33:33.622Z,65.04
2019-02-18T10:36:03.957Z,64.77
2019-02-18T10:38:36.131Z,64.50
2019-02-18T10:41:10.271Z,64.30
2019-02-18T10:43:45.677Z,64.03
2019-02-18T10:46:21.504Z,63.81
2019-02-18T10:49:19.328Z,63.53
2019-02-18T10:51:47.782Z,63.32
2019-02-18T10:54:17.963Z,63.11
2019-02-18T10:57:00.000Z,62.70
2019-02-18T10:59:30.306Z,62.43
2019-02-18T11:02:01.815Z,61.99
2019-02-18T11:04:36.161Z,61.62
2019-02-18T11:07:08.150Z,61.23
2019-02-18T11:09:38.502Z,60.74
2019-02-18T11:12:08.801Z,60.45
2019-02-18T11:14:45.756Z,60.08
2019-02-18T11:17:17.910Z,59.67
2019-02-18T11:19:48.137Z,59.43
2019-02-18T11:22:19.108Z,59.16
2019-02-18T11:24:49.430Z,58.55
2019-02-18T11:27:19.614Z,57.67
2019-02-18T11:29:49.858Z,56.89
2019-02-18T11:32:20.081Z,56.59
2019-02-18T11:34:50.514Z,56.45
2019-02-18T11:37:20.683Z,56.11
2019-02-18T11:39:50.847Z,55.87
2019-02-18T11:42:21.060Z,55.54
2019-02-18T11:44:51.220Z,55.54
2019-02-18T11:47:21.484Z,55.42
2019-02-18T11:49:51.738Z,55.36
2019-02-18T11:52:22.023Z,55.10
2019-02-18T11:54:52.179Z,54.71
2019-02-18T11:57:22.459Z,54.63
2019-02-18T11:59:52.707Z,54.38
2019-02-18T12:02:23.240Z,53.80
2019-02-18T12:04:54.637Z,53.53
2019-02-18T12:07:26.999Z,53.42
2019-02-18T12:09:58.636Z,53.29
2019-02-18T12:12:31.145Z,53.21
2019-02-18T12:15:19.478Z,52.66
2019-02-18T12:17:57.678Z,52.50
2019-02-18T12:20:27.945Z,52.33
2019-02-18T12:22:58.129Z,52.12
2019-02-18T12:25:28.329Z,51.97
2019-02-18T12:27:58.500Z,51.85
2019-02-18T12:30:28.858Z,51.42
2019-02-18T12:32:59.218Z,51.61
2019-02-18T12:35:31.542Z,51.63
2019-02-18T12:38:02.614Z,51.39
2019-02-18T12:40:34.488Z,51.33
2019-02-18T12:43:04.753Z,51.10
2019-02-18T12:45:35.007Z,50.78
2019-02-18T12:48:05.242Z,50.54
2019-02-18T12:50:35.860Z,50.31
2019-02-18T12:53:08.866Z,49.98
2019-02-18T12:55:40.979Z,49.93
2019-02-18T12:58:11.157Z,49.76
2019-02-18T13:00:41.353Z,49.75
2019-02-18T13:03:11.819Z,49.74
2019-02-18T13:05:42.378Z,49.72
2019-02-18T13:08:12.603Z,49.56
2019-02-18T13:10:42.971Z,49.90
2019-02-18T13:13:13.501Z,49.81
2019-02-18T13:15:43.817Z,48.68
2019-02-18T13:18:14.014Z,47.30
2019-02-18T13:20:44.296Z,46.40
2019-02-18T13:23:15.956Z,45.85
2019-02-18T13:25:47.610Z,44.92
2019-02-18T13:28:18.278Z,44.35
2019-02-18T13:30:48.641Z,43.67
2019-02-18T13:33:18.902Z,42.54
2019-02-18T13:35:49.244Z,42.33
2019-02-18T13:38:19.613Z,42.06
2019-02-18T13:40:49.912Z,41.85
2019-02-18T13:43:20.171Z,41.86
2019-02-18T13:45:50.451Z,41.81
2019-02-18T13:48:20.833Z,41.55
2019-02-18T13:50:51.189Z,41.09
2019-02-18T13:53:21.362Z,40.61
2019-02-18T13:55:51.518Z,41.07
2019-02-18T13:58:21.717Z,42.01
2019-02-18T14:00:51.909Z,42.87
2019-02-18T14:03:22.269Z,43.82
2019-02-18T14:05:52.535Z,44.59
2019-02-18T14:08:22.757Z,45.30
2019-02-18T14:10:53.208Z,45.90
2019-02-18T14:13:23.485Z,46.32
2019-02-18T14:15:53.706Z,46.70
2019-02-18T14:18:24.287Z,46.99
2019-02-18T14:20:54.774Z,47.29
2019-02-18T14:23:25.001Z,47.54
2019-02-18T14:25:57.032Z,47.79
2019-02-18T14:28:27.304Z,47.93
2019-02-18T14:30:57.804Z,48.17
2019-02-18T14:33:28.046Z,48.47
2019-02-18T14:36:00.085Z,48.78
2019-02-18T14:38:30.319Z,49.10
2019-02-18T14:41:00.666Z,49.40
2019-02-18T14:43:30.940Z,49.61
2019-02-18T14:46:01.284Z,49.85
2019-02-18T14:48:31.609Z,49.98
2019-02-18T14:51:02.091Z,49.99
2019-02-18T14:53:32.464Z,50.08
2019-02-18T14:56:04.729Z,50.23
2019-02-18T14:58:35.912Z,50.29
2019-02-18T15:01:09.092Z,50.51
2019-02-18T15:03:39.321Z,50.66
2019-02-18T15:06:09.928Z,50.79
2019-02-18T15:08:41.862Z,51.07
2019-02-18T15:11:27.398Z,50.99
2019-02-18T15:14:01.945Z,51.27
2019-02-18T15:16:55.962Z,51.48
2019-02-18T15:19:28.745Z,51.63
2019-02-18T15:21:59.108Z,51.88
2019-02-18T15:24:29.751Z,52.02
2019-02-18T15:27:02.914Z,52.18
2019-02-18T15:29:36.632Z,52.23
2019-02-18T15:32:06.899Z,52.37
2019-02-18T15:34:37.151Z,52.51
2019-02-18T15:37:07.444Z,52.74
2019-02-18T15:39:37.737Z,52.85
2019-02-18T15:42:08.370Z,52.99
2019-02-18T15:44:38.658Z,53.29
2019-02-18T15:47:12.147Z,53.56
2019-02-18T15:49:50.281Z,53.78
2019-02-18T15:52:20.532Z,54.04
2019-02-18T15:54:51.350Z,54.33
2019-02-18T15:57:21.788Z,54.57
2019-02-18T15:59:52.244Z,54.83
2019-02-18T16:02:26.894Z,55.11
2019-02-18T16:04:59.434Z,55.41
2019-02-18T16:07:36.069Z,55.63
2019-02-18T16:10:07.624Z,55.87
2019-02-18T16:12:38.040Z,56.07
2019-02-18T16:15:08.897Z,56.38
2019-02-18T16:17:39.225Z,56.70
2019-02-18T16:20:11.042Z,57.02
2019-02-18T16:22:41.490Z,57.35
2019-02-18T16:25:15.727Z,57.80
2019-02-18T16:27:46.319Z,58.20
2019-02-18T16:30:20.091Z,58.58
2019-02-18T16:33:01.751Z,58.98
2019-02-18T16:35:36.059Z,59.35
2019-02-18T16:38:07.773Z,59.71
2019-02-18T16:40:38.739Z,60.09
2019-02-18T16:43:09.629Z,60.47
2019-02-18T16:45:40.207Z,60.80
2019-02-18T16:48:11.145Z,61.14
2019-02-18T16:50:41.694Z,61.53
2019-02-18T16:53:12.415Z,62.05
2019-02-18T16:55:43.182Z,62.48
2019-02-18T17:01:00.682Z,63.95
2019-02-18T17:03:30.959Z,64.22
2019-02-18T17:06:01.226Z,64.58
2019-02-18T17:08:31.403Z,64.71
2019-02-18T17:11:01.657Z,65.03
2019-02-18T17:13:31.987Z,65.25
2019-02-18T17:16:02.251Z,65.55
2019-02-18T17:18:32.921Z,65.79
2019-02-18T17:21:03.172Z,66.10
2019-02-18T17:23:33.457Z,66.33
2019-02-18T17:26:03.833Z,66.57
2019-02-18T17:28:35.666Z,66.84
2019-02-18T17:31:06.866Z,67.00
2019-02-18T17:33:37.027Z,67.25
2019-02-18T17:36:07.492Z,67.53
2019-02-18T17:38:37.733Z,67.68
2019-02-18T17:41:09.095Z,67.97
2019-02-18T17:43:39.261Z,68.21
2019-02-18T17:46:09.852Z,68.36
2019-02-18T17:48:40.018Z,68.62
2019-02-18T17:51:10.255Z,68.94
2019-02-18T17:53:40.582Z,69.17
2019-02-18T17:56:10.767Z,69.25
2019-02-18T17:58:41.193Z,69.45
2019-02-18T18:01:11.624Z,69.61
2019-02-18T18:03:41.856Z,69.77
2019-02-18T18:06:12.072Z,70.01
2019-02-18T18:08:42.329Z,70.19
2019-02-18T18:11:12.695Z,70.23
2019-02-18T18:13:43.539Z,70.48
2019-02-18T18:16:16.247Z,70.70
2019-02-18T18:18:46.763Z,70.84
2019-02-18T18:21:17.396Z,70.93
2019-02-18T18:23:50.726Z,71.16
2019-02-18T18:26:21.948Z,71.20
2019-02-18T18:28:52.909Z,71.45
2019-02-18T18:31:23.623Z,71.66
2019-02-18T18:33:54.245Z,71.77
2019-02-18T18:36:24.744Z,71.93
2019-02-18T18:38:57.202Z,72.11
2019-02-18T18:41:30.168Z,72.21
2019-02-18T18:44:02.724Z,72.42
2019-02-18T18:46:39.302Z,72.61
2019-02-18T18:49:09.912Z,72.91
2019-02-18T18:51:40.676Z,73.05
2019-02-18T18:54:11.006Z,73.24
2019-02-18T18:56:41.835Z,73.39
2019-02-18T18:59:12.548Z,73.57
2019-02-18T19:01:43.372Z,73.66
2019-02-18T19:04:14.260Z,73.85
2019-02-18T19:06:47.217Z,73.94
2019-02-18T19:09:17.889Z,73.98
2019-02-18T19:11:48.529Z,73.99
2019-02-18T19:14:19.336Z,74.01
2019-02-18T19:16:50.133Z,74.00
2019-02-18T19:19:20.731Z,73.86
2019-02-18T19:21:51.210Z,73.71
2019-02-18T19:24:21.940Z,73.49
2019-02-18T19:26:52.580Z,73.35
2019-02-18T19:29:23.427Z,73.20
2019-02-18T19:31:54.101Z,73.08
2019-02-18T19:34:25.062Z,72.98
2019-02-18T19:36:55.696Z,72.85
2019-02-18T19:39:26.334Z,72.74
2019-02-18T19:41:57.176Z,72.72
2019-02-18T19:44:28.110Z,72.68
2019-02-18T19:46:58.857Z,72.60
2019-02-18T19:49:29.441Z,72.60
2019-02-18T19:52:00.283Z,72.62
2019-02-18T19:54:31.042Z,72.71
2019-02-18T19:57:01.768Z,72.79
2019-02-18T19:59:32.168Z,72.79
2019-02-18T20:02:02.849Z,73.00
2019-02-18T20:04:34.782Z,73.21
2019-02-18T20:07:05.347Z,73.33
2019-02-18T20:09:35.969Z,73.49
2019-02-18T20:12:07.758Z,73.64
2019-02-18T20:14:38.516Z,73.75
2019-02-18T20:17:09.106Z,73.86
2019-02-18T20:19:39.579Z,73.94
2019-02-18T20:22:10.339Z,74.03
2019-02-18T20:24:40.864Z,74.12
2019-02-18T20:27:11.363Z,74.22
2019-02-18T20:32:27.445Z,74.76
2019-02-18T20:34:58.086Z,74.87
2019-02-18T20:37:28.841Z,75.02
2019-02-18T20:39:59.484Z,75.10
2019-02-18T20:42:31.591Z,75.25
2019-02-18T20:45:02.824Z,75.36
2019-02-18T20:47:33.880Z,75.57
2019-02-18T20:50:04.410Z,75.71
2019-02-18T20:52:35.010Z,75.95
2019-02-18T20:55:05.868Z,76.10
2019-02-18T20:57:36.779Z,76.39
2019-02-18T21:00:12.751Z,76.63
2019-02-18T21:02:43.289Z,76.73
2019-02-18T21:05:13.824Z,76.94
2019-02-18T21:07:54.889Z,77.13
2019-02-18T21:12:45.701Z,77.50
2019-02-18T21:15:16.267Z,77.66
2019-02-18T21:17:46.985Z,77.83
2019-02-18T21:20:17.561Z,77.91
2019-02-18T21:22:48.543Z,78.06
2019-02-18T21:25:19.166Z,78.13
2019-02-18T21:27:49.724Z,78.19
2019-02-18T21:30:20.320Z,78.29
2019-02-18T21:32:54.081Z,78.39
2019-02-18T21:35:24.866Z,78.51
2019-02-18T21:37:55.443Z,78.62
2019-02-18T21:40:28.900Z,78.75
2019-02-18T21:42:59.413Z,78.87
2019-02-18T21:45:30.045Z,78.93
2019-02-18T21:48:00.791Z,79.05
2019-02-18T21:50:31.331Z,79.23
2019-02-18T21:53:01.997Z,79.27
2019-02-18T21:55:32.643Z,79.40
2019-02-18T21:58:03.209Z,79.41
2019-02-18T22:00:33.824Z,79.59
2019-02-18T22:03:04.503Z,79.57
2019-02-18T22:05:35.045Z,79.67
2019-02-18T22:08:06.113Z,79.68
2019-02-18T22:10:36.708Z,79.74
2019-02-18T22:13:07.582Z,79.81
2019-02-18T22:15:38.436Z,79.86
2019-02-18T22:18:10.581Z,79.93
2019-02-18T22:20:43.694Z,80.04
2019-02-18T22:23:14.389Z,80.11
2019-02-18T22:25:45.974Z,80.23
2019-02-18T22:28:16.485Z,80.31
2019-02-18T22:30:47.149Z,80.39
2019-02-18T22:33:17.789Z,80.37
2019-02-18T22:35:48.299Z,80.39
2019-02-18T22:38:18.872Z,80.39
2019-02-18T22:40:49.353Z,80.46
2019-02-18T22:43:20.288Z,80.54
2019-02-18T22:45:50.720Z,80.60
2019-02-18T22:48:20.891Z,80.59
2019-02-18T22:50:51.126Z,80.68
2019-02-18T22:53:21.312Z,80.72
2019-02-18T22:55:51.492Z,80.90
2019-02-18T22:58:21.978Z,80.89
2019-02-18T23:01:00.567Z,81.00
2019-02-18T23:03:30.964Z,81.05
2019-02-18T23:06:01.340Z,81.11
2019-02-18T23:08:31.613Z,81.15
2019-02-18T23:11:02.155Z,81.16
2019-02-18T23:13:32.317Z,81.16
2019-02-18T23:16:02.617Z,81.19
2019-02-18T23:18:32.827Z,81.14
2019-02-18T23:21:03.193Z,81.13
2019-02-18T23:23:33.465Z,81.06
2019-02-18T23:26:04.065Z,81.06
2019-02-18T23:28:34.344Z,81.09
2019-02-18T23:31:04.607Z,81.09
2019-02-18T23:33:38.025Z,81.03
2019-02-18T23:36:08.198Z,80.99
2019-02-18T23:38:38.267Z,80.96
2019-02-18T23:41:08.508Z,80.92
2019-02-18T23:43:38.787Z,80.91
2019-02-18T23:46:09.078Z,80.84
2019-02-18T23:48:39.315Z,80.86
2019-02-18T23:51:09.477Z,80.82
2019-02-18T23:53:39.662Z,80.80
2019-02-18T23:56:09.959Z,80.84
2019-02-18T23:58:40.179Z,80.80
